createdAt,value
2018-05-11T02:06:11.126Z,1016.4
2018-05-11T02:16:24.094Z,1016.4
2018-05-11T02:26:41.944Z,1016.4
2018-05-11T02:36:56.128Z,1016.4
2018-05-11T02:47:10.865Z,1016.5
2018-05-11T02:57:57.190Z,1016.4
2018-05-11T03:08:11.921Z,1016.5
2018-05-11T03:18:57.352Z,1016.5
2018-05-11T03:29:43.024Z,1016.6
2018-05-11T03:39:56.613Z,1016.7
2018-05-11T03:50:10.684Z,1016.8
2018-05-11T04:00:56.478Z,1016.8
2018-05-11T04:11:42.409Z,1016.9
2018-05-11T04:22:28.246Z,1017.0
2018-05-11T04:32:42.397Z,1017.1
2018-05-11T04:42:54.799Z,1017.2
2018-05-11T04:53:40.502Z,1017.2
2018-05-11T05:04:25.911Z,1017.3
2018-05-11T05:15:12.779Z,1017.3
2018-05-11T05:25:26.242Z,1017.4
2018-05-11T05:35:40.421Z,1017.4
2018-05-11T05:45:55.079Z,1017.5
2018-05-11T05:56:06.965Z,1017.5
2018-05-11T06:06:52.613Z,1017.5
2018-05-11T06:17:38.314Z,1017.4
2018-05-11T06:27:49.836Z,1017.4
2018-05-11T06:38:04.123Z,1017.4
2018-05-11T06:48:49.225Z,1017.4
2018-05-11T06:59:34.417Z,1017.3
2018-05-11T07:10:21.976Z,1017.3
2018-05-11T07:21:07.606Z,1017.2
2018-05-11T07:31:54.085Z,1017.2
2018-05-11T07:42:08.046Z,1017.2
2018-05-11T07:52:22.252Z,1017.2
2018-05-11T08:02:36.811Z,1017.0
2018-05-11T08:12:56.981Z,1017.2
2018-05-11T08:23:10.955Z,1017.4
2018-05-11T08:34:00.958Z,1017.5
2018-05-11T08:44:14.820Z,1017.3
2018-05-11T09:04:46.396Z,1017.0
2018-05-11T09:15:00.429Z,1016.8
2018-05-11T09:25:27.010Z,1016.7
2018-05-11T09:35:39.417Z,1016.3
2018-05-11T09:45:59.234Z,1016.3
2018-05-11T10:06:32.189Z,1016.6
2018-05-11T10:16:48.546Z,1016.1
2018-05-11T10:27:05.531Z,1016.4
2018-05-11T10:37:32.432Z,1016.1
2018-05-11T10:47:46.786Z,1016.0
2018-05-11T10:58:32.348Z,1016.2
2018-05-11T11:08:47.118Z,1016.1
2018-05-11T11:19:01.208Z,1015.9
2018-05-11T11:29:46.375Z,1015.8
2018-05-11T11:40:02.344Z,1015.5
2018-05-11T11:50:47.565Z,1015.5
2018-05-11T12:01:34.352Z,1015.4
2018-05-11T12:11:46.170Z,1015.2
2018-05-11T12:22:00.248Z,1015.1
2018-05-11T12:32:15.193Z,1015.2
2018-05-11T12:42:29.583Z,1015.2
2018-05-11T12:52:43.891Z,1015.3
2018-05-11T13:02:56.056Z,1014.9
2018-05-11T13:13:10.273Z,1015.1
2018-05-11T13:23:55.978Z,1014.9
2018-05-11T13:34:07.938Z,1014.8
2018-05-11T13:44:53.545Z,1014.4
2018-05-11T13:55:39.623Z,1014.2
2018-05-11T14:05:53.914Z,1014.2
2018-05-11T14:16:18.319Z,1014.1
2018-05-11T14:26:50.958Z,1014.2
2018-05-11T14:37:02.294Z,1013.7
2018-05-11T14:47:14.064Z,1013.6
2018-05-11T14:57:27.917Z,1013.3
2018-05-11T15:07:42.070Z,1013.2
2018-05-11T15:17:56.557Z,1013.1
2018-05-11T15:28:08.255Z,1012.9
2018-05-11T15:38:54.397Z,1012.8
2018-05-11T15:49:09.194Z,1012.7
2018-05-11T15:59:21.313Z,1012.7
2018-05-11T16:10:12.999Z,1012.7
2018-05-11T16:21:06.566Z,1012.6
2018-05-11T16:33:32.587Z,1012.7
2018-05-11T16:44:00.093Z,1012.6
2018-05-11T16:54:16.499Z,1012.6
2018-05-11T17:04:30.576Z,1012.5
2018-05-11T17:14:46.223Z,1012.5
2018-05-11T17:25:00.071Z,1012.5
2018-05-11T17:35:45.654Z,1012.5
2018-05-11T17:46:31.559Z,1012.5
2018-05-11T17:56:46.670Z,1012.5
2018-05-11T18:06:59.599Z,1012.4
2018-05-11T18:19:00.864Z,1012.4
2018-05-11T19:02:49.780Z,1012.4
2018-05-11T19:18:26.643Z,1012.4
2018-05-11T19:30:45.461Z,1012.4
2018-05-11T19:43:20.234Z,1012.5
2018-05-11T19:53:35.163Z,1012.5
2018-05-11T20:03:49.013Z,1012.6
2018-05-11T20:14:03.136Z,1012.7
2018-05-11T20:34:37.773Z,1012.7
2018-05-11T20:45:23.504Z,1012.7
2018-05-11T21:05:54.154Z,1012.8
2018-05-11T21:16:07.896Z,1012.7
2018-05-11T21:27:10.565Z,1012.7
2018-05-11T21:37:22.410Z,1012.8
2018-05-11T21:47:38.341Z,1012.6
2018-05-11T21:57:53.022Z,1012.7
2018-05-11T22:08:07.039Z,1012.7
2018-05-11T22:18:52.841Z,1012.6
2018-05-11T22:29:07.119Z,1012.5
2018-05-11T22:39:52.696Z,1012.6
2018-05-11T22:50:05.581Z,1012.4
2018-05-11T23:00:21.771Z,1012.6
2018-05-11T23:10:38.004Z,1012.5
2018-05-11T23:20:52.796Z,1012.5
2018-05-11T23:31:06.808Z,1012.5
2018-05-11T23:41:30.837Z,1012.3
2018-05-11T23:51:45.179Z,1012.3
